Etusivu
METAR-TAF:

METAR-TAF

Lentoasemat :

Ishigaki, Japani

Leveyspiiri: 24-20N, Pituuspiiri: 124-10E, korkeus merenpinnasta: 6 m

Tämänhetkinen sää

Tämä raportti tehtiin 1 tunti ja 2 minuuttia sitten, kello 03.00 UTC
Tuuli 11 kn pohjoisesta/koillisesta
Lämpötila 22°C
Kosteus 83%
Ilmanpaine 1021 hPa
Näkyvyys 10 km tai enemmän
Muutamia pilviä 1100 ft:n korkeudessa
Hajanaisia pilviä 3800 ft:n korkeudessa
sadekuuroja näköpiirissä,

METAR: ROIG 240300Z 03011KT 9999 VCSH FEW011 SCT038 22/19 Q1021

Aika: 13:02 (04:02 UTC)

Sääennuste

Tämä raportti tehtiin 4 tuntia ja 55 minuuttia sitten, kello 23.07 UTC
Ennuste voimassa 24. päivästä klo 00 UTC - 25. päivään klo 06 UTC
Tuuli 8 kn pohjoisesta/koillisesta
Näkyvyys 10 km tai enemmän
Muutamia pilviä 1000 ft:n korkeudessa
Hajonneita pilviä 2000 ft:n korkeudessa

TAF: ROIG 232307Z 2400/2506 02008KT 9999 FEW010 BKN020

Säähavainnot ja -ennusteet yli 4000 lentoasemalta (METAR- ja TAF-raportit).

Käytössä olevat sääasemat on merkitty karttaan keltaisilla ja punaisilla pisteillä.

Aseta hiiri pisteen päälle nähdäksesi sääaseman nimen.

Klikkaa sitten nähdäksesi säähavainnot ja -ennusteet.

Kartan vaihtaminen: klikkaa mustalla rastilla varustettuja vihreitä pisteitä, niin voit zoomata sisään; viivalla varustettua vihreää pistettä, niin voit zoomata ulos tai vihreitä nuolia, niin pääset viereisille kartoille.


METAR-TAF: